Time;durP1;ratioP1;P1;durP2;ratioP2;P2;SDS_P1;SDS_P2;PMS_P1;PMS_P2;Temp;Humidity;BMP_temperature;BMP_pressure;BME280_temperature;BME280_humidity;BME280_pressure;Samples;Min_cycle;Max_cycle;Signal;HPM_P1;HPM_P2
2023/06/21 00:06:23;;;;;;;813.53;738.20;;;;;;;22.32;71.11;100655.66;15773821;28;20295;-53
2023/06/21 00:13:57;;;;;;;746.50;681.65;;;;;;;22.28;70.27;100651.88;15792379;28;20040;-52
2023/06/21 00:21:32;;;;;;;760.83;693.28;;;;;;;22.20;70.76;100647.88;15792639;28;20596;-53
2023/06/21 00:29:06;;;;;;;745.42;680.80;;;;;;;22.22;70.45;100673.00;15772373;28;20135;-51
2023/06/21 00:36:41;;;;;;;690.25;630.97;;;;;;;22.06;70.75;100674.22;15769557;28;20093;-54
2023/06/21 00:44:15;;;;;;;647.55;595.83;;;;;;;21.98;70.99;100669.38;15768075;28;20047;-53
2023/06/21 00:51:57;;;;;;;630.60;578.03;;;;;;;21.96;70.69;100642.31;15774370;28;20054;-50
2023/06/21 00:59:31;;;;;;;694.20;633.22;;;;;;;21.87;71.41;100638.63;15772207;28;20516;-54
2023/06/21 01:07:14;;;;;;;712.75;650.05;;;;;;;21.94;71.12;100636.34;15779351;28;20036;-54
2023/06/21 01:15:02;;;;;;;708.55;644.38;;;;;;;21.98;71.42;100633.84;15784021;28;20131;-50
2023/06/21 01:22:46;;;;;;;693.65;632.97;;;;;;;21.96;71.47;100641.50;15783029;28;20047;-50
2023/06/21 01:30:21;;;;;;;699.67;638.25;;;;;;;21.97;71.75;100637.69;15782125;28;20393;-52
2023/06/21 01:37:59;;;;;;;695.22;632.72;;;;;;;22.09;71.62;100632.63;15781986;28;20039;-55
2023/06/21 01:45:36;;;;;;;673.28;613.50;;;;;;;22.03;71.14;100615.47;15781808;28;20050;-51
2023/06/21 01:53:13;;;;;;;642.22;588.33;;;;;;;22.23;70.93;100622.66;15781540;28;20036;-56
2023/06/21 02:00:47;;;;;;;573.90;528.15;;;;;;;22.14;71.18;100633.41;15781300;28;20032;-54
2023/06/21 02:08:22;;;;;;;517.58;478.83;;;;;;;22.05;71.55;100708.94;15763976;28;20412;-55
2023/06/21 02:15:56;;;;;;;424.88;392.33;;;;;;;21.60;73.84;100718.34;15762328;28;20056;-57
2023/06/21 02:23:30;;;;;;;486.15;450.25;;;;;;;21.56;74.90;100722.75;15779350;28;20039;-55
2023/06/21 02:31:04;;;;;;;480.33;443.58;;;;;;;21.76;74.46;100725.31;15779705;28;20036;-55
2023/06/21 02:38:40;;;;;;;551.42;509.08;;;;;;;21.85;73.25;100723.59;15759283;28;20243;-54
2023/06/21 02:46:14;;;;;;;522.22;481.25;;;;;;;21.59;74.83;100720.25;15780775;28;20040;-52
2023/06/21 02:53:47;;;;;;;600.90;552.03;;;;;;;21.68;74.73;100684.13;15778473;28;20564;-56
2023/06/21 03:01:21;;;;;;;526.05;484.63;;;;;;;21.94;73.64;100691.00;15779460;28;20189;-56
2023/06/21 03:08:54;;;;;;;449.95;414.88;;;;;;;21.60;74.58;100689.09;15776181;28;20036;-54
2023/06/21 03:16:29;;;;;;;404.13;372.33;;;;;;;21.51;75.27;100718.13;15778204;28;20234;-52
2023/06/21 03:24:02;;;;;;;347.65;321.60;;;;;;;21.31;74.87;100666.34;15787653;22;20050;-49
2023/06/21 03:31:38;;;;;;;138.35;126.95;;;;;;;21.48;75.22;100682.38;15622532;28;20038;-52
2023/06/21 03:39:11;;;;;;;133.50;122.38;;;;;;;21.61;74.01;100674.34;15629675;28;20041;-49
2023/06/21 03:46:46;;;;;;;104.07;94.95;;;;;;;21.70;74.60;100712.78;15646229;28;20113;-48
2023/06/21 03:54:19;;;;;;;80.65;73.00;;;;;;;21.77;74.19;100724.19;15663952;28;20040;-51
2023/06/21 04:01:53;;;;;;;75.63;68.35;;;;;;;21.65;75.29;100712.84;15701012;28;20044;-50
2023/06/21 04:09:26;;;;;;;60.00;50.15;;;;;;;21.76;74.50;100729.97;15695209;28;20698;-50
2023/06/21 04:17:00;;;;;;;63.63;56.80;;;;;;;21.86;73.97;100766.22;15654941;28;20044;-54
2023/06/21 04:24:36;;;;;;;65.80;58.80;;;;;;;21.60;75.56;100779.25;15663783;28;20036;-52
2023/06/21 04:32:11;;;;;;;62.03;54.75;;;;;;;21.88;75.09;100801.47;15649245;28;20049;-50
2023/06/21 04:39:43;;;;;;;64.32;57.20;;;;;;;21.59;75.79;100804.09;15672049;28;20315;-49
2023/06/21 04:47:19;;;;;;;60.95;48.47;;;;;;;21.72;75.84;100810.84;15655618;28;20140;-49
2023/06/21 04:54:59;;;;;;;65.70;56.38;;;;;;;21.89;75.79;100831.25;15669456;28;20231;-48
2023/06/21 05:02:34;;;;;;;66.70;59.03;;;;;;;21.78;76.73;100837.06;15664685;28;20040;-53
2023/06/21 05:10:08;;;;;;;67.05;60.05;;;;;;;22.21;75.78;100848.28;15671831;28;20077;-51
2023/06/21 05:17:43;;;;;;;72.43;65.05;;;;;;;22.54;74.81;100861.13;15677101;28;20071;-52
2023/06/21 05:25:16;;;;;;;65.85;58.95;;;;;;;22.68;74.10;100855.78;15676242;28;20920;-52
2023/06/21 05:32:51;;;;;;;75.75;68.25;;;;;;;23.05;73.69;100876.25;15673013;28;20060;-49
2023/06/21 05:40:24;;;;;;;68.97;61.08;;;;;;;22.83;73.99;100893.13;15679902;28;20126;-49
2023/06/21 05:47:59;;;;;;;82.75;75.55;;;;;;;21.92;77.31;100892.72;15671323;28;20143;-54
2023/06/21 05:55:32;;;;;;;72.20;65.32;;;;;;;21.95;77.74;100883.13;15668149;28;20129;-50
2023/06/21 06:03:06;;;;;;;79.03;71.80;;;;;;;22.51;75.82;100882.75;15663011;28;20486;-53
2023/06/21 06:10:39;;;;;;;89.00;81.43;;;;;;;22.69;75.41;100876.56;15646326;28;20045;-51
2023/06/21 06:18:13;;;;;;;85.25;77.82;;;;;;;23.08;74.51;100890.19;15678114;28;20107;-49
2023/06/21 06:25:47;;;;;;;72.63;66.10;;;;;;;23.43;74.11;100899.91;15666311;28;20468;-49
2023/06/21 06:33:22;;;;;;;46.03;41.10;;;;;;;23.38;72.39;100896.41;15677449;28;20379;-51
2023/06/21 06:40:55;;;;;;;38.15;26.50;;;;;;;23.31;71.83;100921.41;15665875;28;20127;-52
2023/06/21 06:48:29;;;;;;;40.55;32.00;;;;;;;23.27;72.15;100911.31;15651411;28;20041;-50
2023/06/21 06:56:02;;;;;;;34.53;25.00;;;;;;;23.80;70.30;100920.31;15671383;28;20067;-51
2023/06/21 07:03:36;;;;;;;29.23;18.15;;;;;;;23.69;69.91;100921.56;15682790;28;20079;-52
2023/06/21 07:11:09;;;;;;;32.90;29.23;;;;;;;23.95;69.84;100943.97;15673660;28;20040;-52
2023/06/21 07:18:44;;;;;;;16.63;11.15;;;;;;;24.26;68.88;100935.31;15675340;28;20120;-50
2023/06/21 07:26:16;;;;;;;14.18;7.68;;;;;;;24.79;66.66;100948.75;15669772;28;20047;-49
2023/06/21 07:33:57;;;;;;;13.85;8.05;;;;;;;24.80;66.66;100967.66;15671621;28;20052;-52
2023/06/21 07:41:29;;;;;;;13.35;8.20;;;;;;;24.83;65.38;100966.25;15642653;28;20137;-51
2023/06/21 07:49:04;;;;;;;14.82;6.65;;;;;;;24.97;65.27;100969.03;15662166;28;20533;-51
2023/06/21 07:56:37;;;;;;;9.68;6.25;;;;;;;26.18;62.64;100982.34;15626099;28;20084;-52
2023/06/21 08:04:11;;;;;;;11.98;6.10;;;;;;;26.02;62.30;100991.25;15666399;28;20041;-53
2023/06/21 08:11:44;;;;;;;10.75;6.22;;;;;;;27.17;59.82;100996.28;15656182;28;20049;-56
2023/06/21 08:19:18;;;;;;;10.32;6.20;;;;;;;26.89;58.53;100984.56;15665728;28;20488;-52
2023/06/21 08:26:52;;;;;;;11.95;6.28;;;;;;;26.49;58.10;101008.38;15664417;28;20075;-51
2023/06/21 08:34:26;;;;;;;10.70;5.93;;;;;;;26.05;59.23;100985.94;15661088;28;20438;-55
2023/06/21 08:42:01;;;;;;;8.13;4.95;;;;;;;27.50;57.21;101018.81;15646310;28;20484;-52
2023/06/21 08:49:40;;;;;;;10.98;5.32;;;;;;;27.25;55.60;101016.75;15664009;28;20049;-54
2023/06/21 08:57:21;;;;;;;7.75;4.60;;;;;;;27.62;54.28;100991.47;15669940;28;20041;-56
2023/06/21 09:05:00;;;;;;;7.82;5.00;;;;;;;27.28;54.97;101038.16;15689417;28;20091;-56
2023/06/21 09:12:34;;;;;;;9.23;4.47;;;;;;;27.88;53.65;101038.47;15648898;28;20187;-56
2023/06/21 09:20:12;;;;;;;9.52;4.13;;;;;;;27.46;54.91;101035.19;15654125;28;20040;-50
2023/06/21 09:27:46;;;;;;;7.05;4.03;;;;;;;28.14;52.45;101041.31;15631885;23;1086661;-49
2023/06/21 09:35:21;;;;;;;7.00;3.92;;;;;;;27.31;53.75;101054.88;15679689;28;20064;-50
2023/06/21 09:42:54;;;;;;;6.57;3.92;;;;;;;28.14;54.22;101055.09;15701134;28;20045;-58
2023/06/21 09:50:33;;;;;;;6.97;4.05;;;;;;;28.07;50.91;101063.06;15721110;28;20071;-57
2023/06/21 09:58:06;;;;;;;6.97;4.15;;;;;;;28.28;49.65;101067.97;15724790;28;20036;-52
2023/06/21 10:05:55;;;;;;;6.40;3.78;;;;;;;27.24;51.88;101065.56;15715482;28;20041;-52
2023/06/21 10:13:29;;;;;;;5.75;3.50;;;;;;;28.89;50.64;101069.66;15743925;28;20067;-53
2023/06/21 10:21:05;;;;;;;4.90;2.92;;;;;;;28.90;47.91;101068.53;15713081;28;20546;-55
2023/06/21 10:28:42;;;;;;;4.45;3.28;;;;;;;28.03;49.51;101080.56;15726338;28;20075;-59
2023/06/21 10:36:24;;;;;;;7.70;3.63;;;;;;;28.41;49.48;101089.16;15730727;28;20040;-51
2023/06/21 10:43:58;;;;;;;4.85;2.97;;;;;;;28.22;48.69;101087.44;15722507;28;20051;-52
2023/06/21 10:51:36;;;;;;;5.63;2.90;;;;;;;28.23;48.99;101091.03;15729479;28;20041;-55
2023/06/21 10:59:10;;;;;;;4.55;2.70;;;;;;;30.08;46.85;101086.63;15732975;28;20048;-55
2023/06/21 11:06:57;;;;;;;4.50;2.92;;;;;;;30.00;46.03;101071.69;15723233;28;20120;-52
2023/06/21 11:14:31;;;;;;;5.18;4.78;;;;;;;30.22;46.04;101090.03;15718474;28;20049;-56
2023/06/21 11:22:16;;;;;;;21.25;19.67;;;;;;;30.12;45.70;101082.84;15721187;28;20442;-53
2023/06/21 11:29:59;;;;;;;56.63;53.20;;;;;;;29.92;44.49;101089.97;15711447;28;20110;-56
2023/06/21 11:37:36;;;;;;;4.30;2.50;;;;;;;29.11;48.34;101101.88;15716244;28;20576;-57
2023/06/21 11:45:19;;;;;;;3.97;2.30;;;;;;;27.78;48.79;101112.44;15700838;28;20052;-57
2023/06/21 11:52:56;;;;;;;4.50;2.83;;;;;;;27.41;50.53;101126.28;15716218;28;20052;-56
2023/06/21 12:00:32;;;;;;;5.45;2.90;;;;;;;29.47;46.61;101133.84;15723206;28;20052;-57
2023/06/21 12:08:07;;;;;;;4.38;2.22;;;;;;;30.75;43.83;101132.88;15724359;28;20155;-55
2023/06/21 12:15:45;;;;;;;3.47;2.40;;;;;;;30.40;43.99;101146.91;15701694;28;20128;-54
2023/06/21 12:23:20;;;;;;;4.05;2.45;;;;;;;30.32;44.67;101138.69;15726495;28;20051;-55
2023/06/21 12:30:59;;;;;;;4.82;2.67;;;;;;;30.80;43.48;101145.72;15707972;28;20362;-53
2023/06/21 12:38:34;;;;;;;4.90;2.30;;;;;;;30.02;43.19;101149.69;15728383;28;20048;-55
2023/06/21 12:46:12;;;;;;;4.13;2.97;;;;;;;31.59;40.19;101153.03;15739468;28;20044;-57
2023/06/21 12:53:46;;;;;;;4.32;3.00;;;;;;;29.16;42.69;101151.47;15718554;28;20071;-57
2023/06/21 13:01:20;;;;;;;3.83;2.80;;;;;;;30.48;42.19;101154.38;15730250;28;20104;-58
2023/06/21 13:08:57;;;;;;;5.15;3.30;;;;;;;30.73;42.71;101149.84;15731842;28;20059;-57
2023/06/21 13:16:32;;;;;;;6.93;3.47;;;;;;;30.60;41.98;101137.03;15724642;28;20095;-57
2023/06/21 13:24:06;;;;;;;4.78;4.35;;;;;;;31.70;40.01;101143.09;15698708;28;20067;-57
2023/06/21 13:31:39;;;;;;;6.10;5.50;;;;;;;30.21;40.99;101146.53;15736036;28;20491;-56
2023/06/21 13:39:13;;;;;;;4.32;3.13;;;;;;;30.87;41.98;101140.44;15732941;28;20397;-53
2023/06/21 13:46:46;;;;;;;6.53;5.93;;;;;;;30.26;40.36;101137.22;15728947;28;20112;-60
2023/06/21 13:54:22;;;;;;;6.25;5.75;;;;;;;30.49;39.46;101139.38;15727453;28;20072;-62
2023/06/21 14:01:55;;;;;;;5.70;5.07;;;;;;;30.23;40.75;101145.06;15710004;28;20509;-53
2023/06/21 14:09:29;;;;;;;6.30;5.65;;;;;;;30.66;38.44;101124.59;15729330;28;20051;-57
2023/06/21 14:17:07;;;;;;;5.25;4.38;;;;;;;29.68;40.36;101134.00;15708429;28;20056;-54
2023/06/21 14:24:41;;;;;;;5.03;3.75;;;;;;;29.56;41.14;101131.09;15758689;28;20464;-55
2023/06/21 14:32:17;;;;;;;4.78;4.15;;;;;;;29.88;41.01;101138.00;15735750;28;20132;-53
2023/06/21 14:39:51;;;;;;;5.43;4.18;;;;;;;30.26;40.70;101140.81;15729685;28;20056;-52
2023/06/21 14:47:26;;;;;;;6.70;6.20;;;;;;;30.27;40.45;101138.88;15733038;28;20447;-55
2023/06/21 14:55:00;;;;;;;8.45;7.85;;;;;;;29.44;40.62;101143.63;15713395;28;20155;-52
2023/06/21 15:02:35;;;;;;;12.25;11.45;;;;;;;29.65;38.23;101154.03;15732782;28;20098;-56
2023/06/21 15:10:10;;;;;;;12.77;11.93;;;;;;;29.78;39.90;101161.31;15709149;28;20369;-54
2023/06/21 15:17:43;;;;;;;7.00;6.40;;;;;;;30.15;40.65;101145.09;15738670;28;20062;-58
2023/06/21 15:25:21;;;;;;;7.53;6.82;;;;;;;29.52;41.25;101155.84;15738704;23;20044;-51
2023/06/21 15:32:54;;;;;;;9.65;6.53;;;;;;;29.25;40.96;101147.91;15717601;28;20519;-52
2023/06/21 15:40:29;;;;;;;5.80;5.30;;;;;;;29.17;41.81;101149.53;15776255;28;20036;-56
2023/06/21 15:48:01;;;;;;;7.30;6.70;;;;;;;29.38;41.95;101149.69;15784740;28;20105;-51
2023/06/21 15:55:36;;;;;;;16.65;4.40;;;;;;;28.91;43.44;101153.06;15799686;28;20202;-52
2023/06/21 16:03:09;;;;;;;5.32;4.85;;;;;;;29.09;42.53;101147.56;15798869;28;20048;-53
2023/06/21 16:10:44;;;;;;;8.43;7.82;;;;;;;28.76;41.00;101142.47;15794342;28;20047;-54
2023/06/21 16:18:17;;;;;;;6.65;6.10;;;;;;;29.34;40.89;101166.09;15796042;28;20040;-54
2023/06/21 16:25:51;;;;;;;7.13;6.43;;;;;;;29.15;41.44;101149.84;15796290;28;20047;-53
2023/06/21 16:33:24;;;;;;;7.38;6.78;;;;;;;29.19;40.65;101166.59;15766398;28;20048;-55
2023/06/21 16:40:58;;;;;;;6.57;5.85;;;;;;;28.73;41.69;101170.78;15803000;28;20055;-52
2023/06/21 16:48:31;;;;;;;4.43;3.25;;;;;;;28.63;42.98;101176.56;15784024;28;20042;-54
2023/06/21 16:56:06;;;;;;;7.20;6.60;;;;;;;28.60;41.39;101200.16;15801753;28;20048;-50
2023/06/21 17:03:39;;;;;;;7.75;7.13;;;;;;;28.12;42.28;101208.34;15787935;28;20055;-57
2023/06/21 17:11:13;;;;;;;6.45;5.95;;;;;;;28.21;41.56;101225.78;15789668;28;20040;-51
2023/06/21 17:18:47;;;;;;;5.07;4.68;;;;;;;28.08;42.59;101210.97;15789429;28;20098;-48
2023/06/21 17:26:22;;;;;;;6.35;5.80;;;;;;;28.08;41.90;101215.66;15788867;28;20040;-51
2023/06/21 17:33:55;;;;;;;3.97;2.15;;;;;;;28.06;43.56;101226.19;15787996;28;20036;-50
2023/06/21 17:41:29;;;;;;;3.53;2.03;;;;;;;28.01;44.53;101210.59;15770826;28;20543;-50
2023/06/21 17:49:02;;;;;;;4.75;2.60;;;;;;;27.96;45.94;101236.38;15805310;28;20131;-51
2023/06/21 17:56:36;;;;;;;3.20;2.28;;;;;;;28.14;44.82;101264.88;15769097;28;20050;-53
2023/06/21 18:04:11;;;;;;;5.00;2.58;;;;;;;28.13;45.21;101265.22;15786327;28;20408;-48
2023/06/21 18:11:45;;;;;;;4.50;2.65;;;;;;;28.15;46.21;101274.78;15776901;28;20053;-51
2023/06/21 18:19:18;;;;;;;4.97;2.70;;;;;;;27.86;46.28;101272.50;15786128;28;20039;-54
2023/06/21 18:26:52;;;;;;;4.53;2.90;;;;;;;27.63;45.13;101279.91;15804382;28;20071;-49
2023/06/21 18:34:25;;;;;;;5.93;3.17;;;;;;;27.32;46.05;101281.75;15802424;28;20046;-49
2023/06/21 18:41:59;;;;;;;5.43;3.47;;;;;;;27.45;46.75;101283.66;15766931;28;20048;-50
2023/06/21 18:49:32;;;;;;;5.45;3.42;;;;;;;26.97;47.08;101273.09;15802326;28;20043;-48
2023/06/21 18:57:07;;;;;;;5.15;3.03;;;;;;;27.16;47.73;101278.53;15800125;28;20032;-50
2023/06/21 19:04:40;;;;;;;6.28;3.50;;;;;;;27.03;48.00;101282.06;15799837;28;20544;-46
2023/06/21 19:12:16;;;;;;;7.05;3.90;;;;;;;26.82;48.20;101290.78;15800451;28;20051;-51
2023/06/21 19:19:49;;;;;;;9.43;8.50;;;;;;;26.63;49.09;101293.63;15783689;28;20067;-57
2023/06/21 19:27:23;;;;;;;8.27;4.53;;;;;;;26.51;48.78;101296.03;15799214;28;20109;-54
2023/06/21 19:34:56;;;;;;;6.82;4.80;;;;;;;26.25;49.01;101320.41;15792446;28;20558;-52
2023/06/21 19:42:31;;;;;;;12.68;11.52;;;;;;;26.01;50.20;101327.97;15780258;28;20145;-55
2023/06/21 19:50:05;;;;;;;16.20;14.48;;;;;;;25.68;50.63;101322.41;15797338;28;20047;-51
2023/06/21 19:57:39;;;;;;;54.25;50.78;;;;;;;25.53;51.33;101352.88;15779042;28;20048;-54
2023/06/21 20:05:13;;;;;;;403.58;371.55;;;;;;;25.29;52.15;101361.97;15770764;28;20502;-50
2023/06/21 20:12:50;;;;;;;1343.45;824.83;;;;;;;25.14;53.22;101357.50;15797832;28;20457;-57
2023/06/21 20:20:23;;;;;;;968.60;740.60;;;;;;;24.94;53.39;101374.97;15778568;28;20040;-56
2023/06/21 20:27:57;;;;;;;887.53;793.55;;;;;;;24.75;53.71;101376.81;15776893;28;20109;-53
2023/06/21 20:35:30;;;;;;;953.42;816.33;;;;;;;24.45;54.50;101386.19;15796458;28;20366;-53
2023/06/21 20:43:07;;;;;;;1853.95;999.90;;;;;;;24.14;57.26;101391.88;15772620;28;20063;-52
2023/06/21 20:50:40;;;;;;;602.28;559.80;;;;;;;23.93;56.90;101406.84;15789440;28;20274;-51
2023/06/21 20:58:15;;;;;;;498.60;464.95;;;;;;;23.77;58.19;101406.09;15768642;28;20602;-53
2023/06/21 21:05:48;;;;;;;536.33;497.85;;;;;;;23.58;58.51;101408.63;15768762;28;20058;-48
2023/06/21 21:13:23;;;;;;;473.50;441.13;;;;;;;23.42;59.09;101418.03;15776921;28;20469;-52
2023/06/21 21:20:56;;;;;;;499.00;466.23;;;;;;;23.28;59.65;101420.53;15774218;28;20036;-54
2023/06/21 21:28:30;;;;;;;449.77;420.27;;;;;;;23.13;60.04;101418.66;15782476;22;20049;-56
2023/06/21 21:36:03;;;;;;;393.15;367.85;;;;;;;23.08;58.76;101420.56;15761653;28;20044;-53
2023/06/21 21:43:38;;;;;;;523.95;488.95;;;;;;;22.81;60.17;101418.97;15805558;28;20123;-52
2023/06/21 21:51:11;;;;;;;456.67;425.90;;;;;;;22.26;60.97;101378.75;15771428;28;20139;-56
2023/06/21 21:58:48;;;;;;;463.40;432.70;;;;;;;22.48;61.19;101414.06;15786580;28;20078;-55
2023/06/21 22:06:20;;;;;;;621.10;576.60;;;;;;;22.29;61.90;101408.28;15786204;28;20044;-55
2023/06/21 22:13:55;;;;;;;460.20;429.65;;;;;;;22.26;62.01;101414.31;15781149;28;20058;-55
2023/06/21 22:21:33;;;;;;;468.42;437.63;;;;;;;22.24;62.44;101413.75;15784447;28;20074;-53
2023/06/21 22:29:07;;;;;;;314.48;294.75;;;;;;;22.12;63.47;101430.41;15802349;28;20403;-56
2023/06/21 22:36:41;;;;;;;356.90;334.90;;;;;;;21.82;65.01;101431.97;15783579;28;20063;-56
2023/06/21 22:44:15;;;;;;;287.80;270.52;;;;;;;21.83;64.55;101440.97;15785441;28;20047;-52
2023/06/21 22:51:48;;;;;;;294.65;276.48;;;;;;;21.67;64.87;101452.94;15767590;28;20381;-53
2023/06/21 22:59:24;;;;;;;227.93;214.27;;;;;;;21.74;64.73;101451.59;15783233;28;20040;-54
2023/06/21 23:07:00;;;;;;;266.33;249.93;;;;;;;21.48;65.61;101455.31;15800037;28;20089;-53
2023/06/21 23:14:37;;;;;;;244.75;229.60;;;;;;;21.02;66.20;101394.94;15799600;28;20105;-55
2023/06/21 23:22:18;;;;;;;200.85;188.55;;;;;;;21.50;64.70;101453.16;15765313;28;20500;-53
2023/06/21 23:29:53;;;;;;;196.93;185.23;;;;;;;21.44;65.33;101452.28;15762698;28;20468;-55
2023/06/21 23:37:28;;;;;;;232.15;217.20;;;;;;;21.32;65.24;101470.81;15799694;28;20048;-55
2023/06/21 23:45:06;;;;;;;243.38;228.02;;;;;;;21.31;65.37;101456.34;15799057;28;20093;-53
2023/06/21 23:52:39;;;;;;;254.13;238.32;;;;;;;21.20;65.67;101457.31;15799167;28;20110;-55
